Taylorville, IL (62568)

7:35 PM CST on February 25, 2017 (GMT -0600)
Taylorville Municipal | | Change Station

Elev 620 ft 39.53 °N, 89.33 °W | Updated 20 minutes ago

Clear
Clear
29 °F
Feels Like 21 °F
N
8
Wind Variable Wind from WNW

Today
High -- | Low -- °F
--% Chance of Precip.
Yesterday
High -- | Low -- °F
Precip. -- in
Pressure 30.09 in
Visibility 10.0 miles
Clouds Clear
Windchill 21 °F
Dew Point 12 °F
Humidity 48%
Rainfall 0.00 in
Snow Depth Not available.
6:35 AM 5:45 PM
Waning Crescent, 0% visible
METAR KTAZ 260115Z AUTO 29007KT 10SM CLR M02/M11 A3009 RMK AO2 T10161114
Pressure 30.09 in
Visibility 10.0 miles
Clouds Clear
Windchill 21 °F
Dew Point 12 °F
Humidity 48%
Rainfall 0.00 in
Snow Depth Not available.
6:35 AM 5:45 PM
Waning Crescent, 0% visible
METAR KTAZ 260115Z AUTO 29007KT 10SM CLR M02/M11 A3009 RMK AO2 T10161114

Get Your Daily Forecast Email!

Thanks for signing up!

Be on the lookout for a verification email in your inbox.

You'll start receiving the daily forecast at 8 AM.

×

10-Day Weather Forecast

Almanac

Astronomy

Feb. 25, 2017 Rise Set
Actual Time
Civil Twilight
Nautical Twilight
Astronomical Twilight
Moon
Length of Visible Light
Length of Day
Tomorrow will be .
, % of the Moon is Illuminated

Today's Extremes

State Highs State Lows

Community

WunderPhotos

Upload Photos

1,962,540 photos uploaded!

WunderBlog® & News

Nearby

Air Quality

  Air Quality AQ Index Pollutant
Not available.

Snow Depth

Station Depth Elevation

Earthquake Activity

City Distance Mag. Time & Date
Minimum magnitude displayed is 2.5.

Coastal Water Temperatures

Place Temperature

Stations

Nearby Weather Stations

Station Location Temp. Windchill Dew Point Humidity Wind Precip. Elev Updated Type
                   

Watches & Warnings

There are currently no watches in effect.